Time;durP1;ratioP1;P1;durP2;ratioP2;P2;SDS_P1;SDS_P2;PMS_P1;PMS_P2;Temp;Humidity;BMP_temperature;BMP_pressure;BME280_temperature;BME280_humidity;BME280_pressure;Samples;Min_cycle;Max_cycle;Signal;HPM_P1;HPM_P2
2024/03/12 00:08:43;;;;;;;18.37;14.13;;;6.50;99.90;;;;;;5707921;24;20698;-84
2024/03/12 00:59:40;;;;;;;19.30;13.63;;;6.30;99.90;;;;;;5643606;24;20304;-88
2024/03/12 01:04:16;;;;;;;19.23;13.70;;;6.30;99.90;;;;;;5664070;24;20263;-86
2024/03/12 01:29:37;;;;;;;23.63;15.40;;;6.20;99.90;;;;;;5739783;24;20535;-83
2024/03/12 01:50:34;;;;;;;22.20;16.37;;;6.20;99.90;;;;;;5644505;24;20186;-86
2024/03/12 01:54:58;;;;;;;26.07;16.47;;;6.20;99.90;;;;;;5557226;24;20659;-83
2024/03/12 02:20:47;;;;;;;23.37;16.37;;;6.20;99.90;;;;;;5588349;24;20214;-86
2024/03/12 02:56:31;;;;;;;29.53;16.83;;;6.30;99.90;;;;;;5893134;23;20285;-85
2024/03/12 03:00:50;;;;;;;32.57;17.93;;;6.20;99.90;;;;;;5748107;23;20848;-87
2024/03/12 03:21:25;;;;;;;26.97;16.97;;;6.20;99.90;;;;;;5819536;23;21332;-85
2024/03/12 03:42:06;;;;;;;31.30;17.63;;;6.20;99.90;;;;;;5540754;25;20216;-87
2024/03/12 04:06:48;;;;;;;26.47;15.30;;;6.20;99.90;;;;;;5523342;25;20411;-84
2024/03/12 04:32:15;;;;;;;31.67;16.50;;;6.20;99.90;;;;;;5486133;25;20609;-86
2024/03/12 05:22:50;;;;;;;32.20;17.80;;;6.10;99.90;;;;;;5485703;25;20216;-85
2024/03/12 07:10:04;;;;;;;37.83;20.40;;;6.30;99.90;;;;;;5660200;24;20191;-86
2024/03/12 07:35:18;;;;;;;41.87;20.80;;;6.40;99.90;;;;;;5596366;24;20151;-85
2024/03/12 08:05:10;;;;;;;43.77;23.37;;;6.60;99.90;;;;;;5662146;24;20499;-83
2024/03/12 08:56:27;;;;;;;31.80;17.27;;;6.90;99.90;;;;;;5748934;24;20458;-83
2024/03/12 09:26:18;;;;;;;32.17;17.73;;;7.20;99.90;;;;;;5886889;23;20176;-85
2024/03/12 09:42:12;;;;;;;29.47;15.70;;;7.30;99.90;;;;;;5814266;24;20242;-87
2024/03/12 10:22:38;;;;;;;22.50;14.97;;;7.60;99.90;;;;;;5715166;24;20193;-86
2024/03/12 10:47:58;;;;;;;23.47;14.83;;;7.40;99.90;;;;;;5781229;24;20562;-88
2024/03/12 11:13:34;;;;;;;16.97;12.37;;;7.40;99.90;;;;;;5683255;24;20316;-88
2024/03/12 11:17:53;;;;;;;20.90;13.27;;;7.70;99.90;;;;;;5747748;24;20192;-86
2024/03/12 11:38:54;;;;;;;21.20;13.07;;;7.90;99.90;;;;;;5736341;24;20648;-87
2024/03/12 12:09:14;;;;;;;19.53;12.27;;;8.00;99.90;;;;;;5716635;24;20665;-86
2024/03/12 12:34:42;;;;;;;21.60;13.27;;;7.90;99.90;;;;;;5769014;24;20336;-88
2024/03/12 13:04:56;;;;;;;20.03;13.63;;;8.20;99.90;;;;;;5858091;24;20255;-86
2024/03/12 13:35:27;;;;;;;20.60;14.07;;;8.00;99.90;;;;;;5865129;24;20194;-87
2024/03/12 14:10:32;;;;;;;25.47;17.47;;;7.70;99.90;;;;;;5684463;24;20504;-85
2024/03/12 14:36:17;;;;;;;27.57;19.33;;;7.60;99.90;;;;;;5888526;23;20163;-86
2024/03/12 15:06:38;;;;;;;22.30;13.93;;;7.60;99.90;;;;;;5720488;24;20626;-85
2024/03/12 15:27:11;;;;;;;26.23;13.77;;;7.50;99.90;;;;;;5837593;24;20274;-85
2024/03/12 15:31:30;;;;;;;24.37;15.53;;;7.50;99.90;;;;;;5751429;24;20496;-87
2024/03/12 15:52:20;;;;;;;22.87;13.87;;;7.40;99.90;;;;;;5621771;24;20179;-87
2024/03/12 16:17:39;;;;;;;27.30;16.33;;;7.10;99.90;;;;;;5631375;24;20186;-84
2024/03/12 16:52:40;;;;;;;35.77;18.87;;;7.00;99.90;;;;;;5804986;24;20216;-88
2024/03/12 17:18:45;;;;;;;34.20;19.90;;;7.10;99.90;;;;;;5813130;24;20214;-87
2024/03/12 17:23:06;;;;;;;35.20;19.70;;;6.90;99.90;;;;;;5677753;24;20324;-86
2024/03/12 18:44:55;;;;;;;41.73;21.83;;;6.60;99.90;;;;;;5730966;24;20189;-87
2024/03/12 19:09:37;;;;;;;45.37;23.50;;;6.40;99.90;;;;;;5875228;23;20253;-87
2024/03/12 20:16:02;;;;;;;49.93;24.50;;;6.00;99.90;;;;;;5646268;24;20163;-87
2024/03/12 20:36:32;;;;;;;47.53;24.03;;;5.90;99.90;;;;;;5763594;24;20192;-89
2024/03/12 21:06:49;;;;;;;43.73;22.93;;;5.80;99.90;;;;;;5827344;23;20205;-86
2024/03/12 21:37:15;;;;;;;42.80;23.80;;;5.80;99.90;;;;;;5862905;23;20700;-87
2024/03/12 22:02:15;;;;;;;47.70;24.73;;;5.80;99.90;;;;;;5751142;24;20408;-87
2024/03/12 22:28:08;;;;;;;42.13;23.90;;;5.70;99.90;;;;;;5838310;24;20179;-87
2024/03/12 22:32:28;;;;;;;42.50;24.33;;;5.70;99.90;;;;;;5777008;23;20231;-86
2024/03/12 23:03:33;;;;;;;35.60;21.37;;;5.60;99.90;;;;;;5804032;24;20212;-85
2024/03/12 23:33:49;;;;;;;36.33;23.07;;;5.60;99.90;;;;;;5808373;23;20226;-86
